createdAt,value
2019-02-21T00:00:24.191Z,74.97
2019-02-21T00:02:51.822Z,75.22
2019-02-21T00:05:21.184Z,75.45
2019-02-21T00:07:50.695Z,75.38
2019-02-21T00:10:21.063Z,75.42
2019-02-21T00:12:51.008Z,75.50
2019-02-21T00:15:20.928Z,75.68
2019-02-21T00:17:50.296Z,75.79
2019-02-21T00:20:20.019Z,75.84
2019-02-21T00:22:49.671Z,75.90
2019-02-21T00:25:19.084Z,75.89
2019-02-21T00:27:48.726Z,76.00
2019-02-21T00:30:18.390Z,76.15
2019-02-21T00:32:47.843Z,76.15
2019-02-21T00:35:17.253Z,76.24
2019-02-21T00:37:46.764Z,76.24
2019-02-21T00:40:16.128Z,76.27
2019-02-21T00:42:45.719Z,76.30
2019-02-21T00:45:15.141Z,76.38
2019-02-21T00:47:44.783Z,76.36
2019-02-21T00:50:15.222Z,76.35
2019-02-21T00:52:44.807Z,76.31
2019-02-21T00:55:15.097Z,76.19
2019-02-21T00:57:44.738Z,76.20
2019-02-21T01:00:15.389Z,76.23
2019-02-21T01:02:45.196Z,76.10
2019-02-21T01:05:14.863Z,76.14
2019-02-21T01:07:44.209Z,75.94
2019-02-21T01:10:15.152Z,75.74
2019-02-21T01:12:44.814Z,75.68
2019-02-21T01:15:15.193Z,75.61
2019-02-21T01:17:45.959Z,75.56
2019-02-21T01:20:15.321Z,75.39
2019-02-21T01:22:44.826Z,75.42
2019-02-21T01:25:15.379Z,75.40
2019-02-21T01:27:44.923Z,75.43
2019-02-21T01:30:15.467Z,75.42
2019-02-21T01:32:44.966Z,75.56
2019-02-21T01:35:15.337Z,75.64
2019-02-21T01:37:44.943Z,75.71
2019-02-21T01:40:15.216Z,75.96
2019-02-21T01:42:44.852Z,76.19
2019-02-21T01:45:15.261Z,76.36
2019-02-21T01:47:44.849Z,76.44
2019-02-21T01:50:15.614Z,76.48
2019-02-21T01:52:45.207Z,76.47
2019-02-21T01:55:15.548Z,76.55
2019-02-21T01:57:44.930Z,76.64
2019-02-21T02:00:15.571Z,76.64
2019-02-21T02:02:45.092Z,76.66
2019-02-21T02:05:15.455Z,76.72
2019-02-21T02:07:45.074Z,76.86
2019-02-21T02:10:15.280Z,77.20
2019-02-21T02:12:45.103Z,77.20
2019-02-21T02:15:15.320Z,76.96
2019-02-21T02:17:44.962Z,76.92
2019-02-21T02:20:15.499Z,76.98
2019-02-21T02:22:45.232Z,76.95
2019-02-21T02:25:15.354Z,76.95
2019-02-21T02:27:45.057Z,77.32
2019-02-21T02:30:15.664Z,77.41
2019-02-21T02:32:45.381Z,77.24
2019-02-21T02:35:15.411Z,77.24
2019-02-21T02:37:44.992Z,77.28
2019-02-21T02:40:15.337Z,77.35
2019-02-21T02:42:44.977Z,77.43
2019-02-21T02:45:15.361Z,77.59
2019-02-21T02:47:44.703Z,77.68
2019-02-21T02:50:15.519Z,77.83
2019-02-21T02:52:45.265Z,78.27
2019-02-21T02:55:15.464Z,78.27
2019-02-21T02:57:45.359Z,78.85
2019-02-21T03:00:15.881Z,78.85
2019-02-21T03:02:45.310Z,78.66
2019-02-21T03:05:15.519Z,78.75
2019-02-21T03:07:45.144Z,78.85
2019-02-21T03:10:15.480Z,78.85
2019-02-21T03:12:45.101Z,78.84
2019-02-21T03:15:15.419Z,78.84
2019-02-21T03:17:45.079Z,79.25
2019-02-21T03:20:15.847Z,79.22
2019-02-21T03:22:45.198Z,79.22
2019-02-21T03:25:15.559Z,79.31
2019-02-21T03:27:45.230Z,79.51
2019-02-21T03:30:15.593Z,79.51
2019-02-21T03:32:45.255Z,80.19
2019-02-21T03:35:15.582Z,80.19
2019-02-21T03:37:45.169Z,80.07
2019-02-21T03:40:15.587Z,80.33
2019-02-21T03:42:45.262Z,80.52
2019-02-21T03:45:15.639Z,80.91
2019-02-21T03:47:45.285Z,81.12
2019-02-21T03:50:15.900Z,81.15
2019-02-21T03:52:45.266Z,81.18
2019-02-21T03:55:15.811Z,81.19
2019-02-21T03:57:45.460Z,81.17
2019-02-21T04:00:15.636Z,81.18
2019-02-21T04:02:45.584Z,81.21
2019-02-21T04:05:15.653Z,81.32
2019-02-21T04:07:45.299Z,81.39
2019-02-21T04:10:15.683Z,81.56
2019-02-21T04:12:45.474Z,81.71
2019-02-21T04:15:15.557Z,81.68
2019-02-21T04:17:45.218Z,81.71
2019-02-21T04:20:14.566Z,81.62
2019-02-21T04:22:44.219Z,81.48
2019-02-21T04:25:13.606Z,81.44
2019-02-21T04:27:43.214Z,81.43
2019-02-21T04:30:12.556Z,81.49
2019-02-21T04:32:42.625Z,81.52
2019-02-21T04:35:12.267Z,81.58
2019-02-21T04:37:41.873Z,81.58
2019-02-21T04:40:11.293Z,81.66
2019-02-21T04:42:40.885Z,81.77
2019-02-21T04:45:10.529Z,81.89
2019-02-21T04:47:39.889Z,81.89
2019-02-21T04:50:09.356Z,82.18
2019-02-21T04:52:38.721Z,82.24
2019-02-21T04:55:08.338Z,82.22
2019-02-21T04:57:37.699Z,82.21
2019-02-21T05:00:10.599Z,82.23
2019-02-21T05:02:39.965Z,82.26
2019-02-21T05:05:09.495Z,82.36
2019-02-21T05:07:38.869Z,82.47
2019-02-21T05:10:08.417Z,82.56
2019-02-21T05:12:37.779Z,82.56
2019-02-21T05:15:07.526Z,82.78
2019-02-21T05:17:36.994Z,82.92
2019-02-21T05:20:06.929Z,82.89
2019-02-21T05:22:36.408Z,82.90
2019-02-21T05:25:06.117Z,83.04
2019-02-21T05:27:35.776Z,83.16
2019-02-21T05:30:07.849Z,83.17
2019-02-21T05:32:42.170Z,83.47
2019-02-21T05:35:13.180Z,83.47
2019-02-21T05:37:44.183Z,83.61
2019-02-21T05:40:20.734Z,83.68
2019-02-21T05:42:52.312Z,83.76
2019-02-21T05:45:24.558Z,83.77
2019-02-21T05:48:04.709Z,83.80
2019-02-21T05:50:51.750Z,83.79
2019-02-21T05:53:38.607Z,83.79
2019-02-21T05:56:09.601Z,83.81
2019-02-21T05:58:40.590Z,83.76
2019-02-21T06:01:23.668Z,83.76
2019-02-21T06:04:03.554Z,83.75
2019-02-21T06:06:43.772Z,83.88
2019-02-21T06:09:14.767Z,84.00
2019-02-21T06:12:02.080Z,84.13
2019-02-21T06:14:33.378Z,84.15
2019-02-21T06:17:07.021Z,84.07
2019-02-21T06:19:41.230Z,84.09
2019-02-21T06:22:12.305Z,84.16
2019-02-21T06:24:44.136Z,84.16
2019-02-21T06:27:15.412Z,84.12
2019-02-21T06:29:49.779Z,84.12
2019-02-21T06:32:19.133Z,84.31
2019-02-21T06:34:48.868Z,84.36
2019-02-21T06:37:18.522Z,84.44
2019-02-21T06:39:47.886Z,84.52
2019-02-21T06:42:18.865Z,84.48
2019-02-21T06:44:48.235Z,84.45
2019-02-21T06:47:17.874Z,84.36
2019-02-21T06:49:47.248Z,84.44
2019-02-21T06:52:16.893Z,84.53
2019-02-21T06:54:46.802Z,84.77
2019-02-21T06:57:18.098Z,84.93
2019-02-21T06:59:47.667Z,85.06
2019-02-21T07:02:18.267Z,85.21
2019-02-21T07:04:47.815Z,85.28
2019-02-21T07:07:17.189Z,85.28
2019-02-21T07:09:46.727Z,85.23
2019-02-21T07:12:16.063Z,85.13
2019-02-21T07:14:45.971Z,84.93
2019-02-21T07:17:16.083Z,84.88
2019-02-21T07:19:45.734Z,84.95
2019-02-21T07:22:17.925Z,84.88
2019-02-21T07:24:47.790Z,84.84
2019-02-21T07:27:17.406Z,84.89
2019-02-21T07:29:46.829Z,84.79
2019-02-21T07:32:16.184Z,84.64
2019-02-21T07:34:46.801Z,84.44
2019-02-21T07:37:18.913Z,84.44
2019-02-21T07:39:50.774Z,84.45
2019-02-21T07:42:20.728Z,84.36
2019-02-21T07:44:50.118Z,84.37
2019-02-21T07:47:19.516Z,84.34
2019-02-21T07:49:50.424Z,84.25
2019-02-21T07:52:20.125Z,84.25
2019-02-21T07:55:01.032Z,83.75
2019-02-21T07:57:21.859Z,83.70
2019-02-21T07:59:51.238Z,83.64
2019-02-21T08:02:21.135Z,83.63
2019-02-21T08:04:50.523Z,83.30
2019-02-21T08:07:20.167Z,83.29
2019-02-21T08:09:49.907Z,83.36
2019-02-21T08:12:19.498Z,83.36
2019-02-21T08:14:48.878Z,83.08
2019-02-21T08:17:18.463Z,83.05
2019-02-21T08:19:48.004Z,82.83
2019-02-21T08:22:17.355Z,82.83
2019-02-21T08:24:47.170Z,82.24
2019-02-21T08:27:16.807Z,82.24
2019-02-21T08:29:46.167Z,82.19
2019-02-21T08:32:17.872Z,82.04
2019-02-21T08:34:49.113Z,81.97
2019-02-21T08:37:19.830Z,81.73
2019-02-21T08:39:49.195Z,81.54
2019-02-21T08:42:18.854Z,81.50
2019-02-21T08:44:48.204Z,81.22
2019-02-21T08:47:18.131Z,80.69
2019-02-21T08:49:47.742Z,80.81
2019-02-21T08:52:17.295Z,80.96
2019-02-21T08:54:47.255Z,79.81
2019-02-21T08:57:19.582Z,79.81
2019-02-21T08:59:48.202Z,79.28
2019-02-21T09:02:18.196Z,78.37
2019-02-21T09:04:47.569Z,78.28
2019-02-21T09:07:17.108Z,77.76
2019-02-21T09:09:46.475Z,77.60
2019-02-21T09:12:16.337Z,77.79
2019-02-21T09:14:45.998Z,78.07
2019-02-21T09:17:16.406Z,78.38
2019-02-21T09:19:46.103Z,78.35
2019-02-21T09:22:16.319Z,78.62
2019-02-21T09:24:45.974Z,78.63
2019-02-21T09:27:16.323Z,78.64
2019-02-21T09:29:45.987Z,79.03
2019-02-21T09:32:16.468Z,79.13
2019-02-21T09:34:46.097Z,78.79
2019-02-21T09:37:16.643Z,78.58
2019-02-21T09:39:46.089Z,78.66
2019-02-21T09:42:16.421Z,78.71
2019-02-21T09:44:46.344Z,78.76
2019-02-21T09:47:15.984Z,78.61
2019-02-21T09:49:45.818Z,78.89
2019-02-21T09:52:16.595Z,79.16
2019-02-21T09:54:47.480Z,79.18
2019-02-21T09:57:18.745Z,79.78
2019-02-21T09:59:48.120Z,80.02
2019-02-21T10:02:18.067Z,80.86
2019-02-21T10:04:47.414Z,82.13
2019-02-21T10:07:17.038Z,83.50
2019-02-21T10:09:46.645Z,84.75
2019-02-21T10:12:16.846Z,85.68
2019-02-21T10:14:46.188Z,86.50
2019-02-21T10:17:16.502Z,87.41
2019-02-21T10:19:45.877Z,88.20
2019-02-21T10:22:16.471Z,87.45
2019-02-21T10:24:46.103Z,87.45
2019-02-21T10:27:16.829Z,88.05
2019-02-21T10:29:46.185Z,87.53
2019-02-21T10:32:16.557Z,87.97
2019-02-21T10:34:46.140Z,87.52
2019-02-21T10:37:16.512Z,87.52
2019-02-21T10:39:47.887Z,87.67
2019-02-21T10:42:17.856Z,87.39
2019-02-21T10:44:50.179Z,87.46
2019-02-21T10:47:20.079Z,87.46
2019-02-21T10:49:49.437Z,86.22
2019-02-21T10:52:19.128Z,86.26
2019-02-21T10:54:48.513Z,85.90
2019-02-21T10:57:18.178Z,85.37
2019-02-21T10:59:49.029Z,84.84
2019-02-21T11:02:18.604Z,84.87
2019-02-21T11:04:54.707Z,83.82
2019-02-21T11:07:19.613Z,83.82
2019-02-21T11:09:49.296Z,84.80
2019-02-21T11:12:18.918Z,84.13
2019-02-21T11:14:48.413Z,83.55
2019-02-21T11:17:17.812Z,82.87
2019-02-21T11:19:47.407Z,82.85
2019-02-21T11:22:17.043Z,82.07
2019-02-21T11:24:48.040Z,81.66
2019-02-21T11:27:17.706Z,81.56
2019-02-21T11:29:47.369Z,81.44
2019-02-21T11:32:16.755Z,80.54
2019-02-21T11:34:46.465Z,80.24
2019-02-21T11:37:15.867Z,80.32
2019-02-21T11:39:45.798Z,80.25
2019-02-21T11:42:16.392Z,79.60
2019-02-21T11:44:45.752Z,79.84
2019-02-21T11:47:18.095Z,79.41
2019-02-21T11:49:47.456Z,79.14
2019-02-21T11:52:17.749Z,79.02
2019-02-21T11:54:47.462Z,79.12
2019-02-21T11:57:17.211Z,77.57
2019-02-21T11:59:46.597Z,76.03
2019-02-21T12:02:16.891Z,74.55
2019-02-21T12:04:46.470Z,74.24
2019-02-21T12:07:16.693Z,73.93
2019-02-21T12:09:46.057Z,74.14
2019-02-21T12:12:17.343Z,74.82
2019-02-21T12:14:46.695Z,74.82
2019-02-21T12:17:17.057Z,74.56
2019-02-21T12:19:46.552Z,74.56
2019-02-21T12:22:16.795Z,74.86
2019-02-21T12:24:46.730Z,75.14
2019-02-21T12:27:17.038Z,75.34
2019-02-21T12:29:46.816Z,75.70
2019-02-21T12:32:16.844Z,75.83
2019-02-21T12:34:46.522Z,76.31
2019-02-21T12:37:16.870Z,76.51
2019-02-21T12:39:46.505Z,76.82
2019-02-21T12:42:17.110Z,77.16
2019-02-21T12:44:47.902Z,77.23
2019-02-21T12:47:17.877Z,77.92
2019-02-21T12:49:47.509Z,78.22
2019-02-21T12:52:18.252Z,78.64
2019-02-21T12:54:47.863Z,78.72
2019-02-21T12:57:17.532Z,79.09
2019-02-21T12:59:46.915Z,79.05
2019-02-21T13:02:16.584Z,79.12
2019-02-21T13:04:47.937Z,79.03
2019-02-21T13:07:17.647Z,79.10
2019-02-21T13:09:47.035Z,79.09
2019-02-21T13:12:16.920Z,78.97
2019-02-21T13:14:46.603Z,79.23
2019-02-21T13:17:16.950Z,79.22
2019-02-21T13:19:46.584Z,78.87
2019-02-21T13:22:16.956Z,79.07
2019-02-21T13:24:46.686Z,78.97
2019-02-21T13:27:16.918Z,78.35
2019-02-21T13:29:46.575Z,78.07
2019-02-21T13:32:16.935Z,78.47
2019-02-21T13:34:46.615Z,78.12
2019-02-21T13:37:27.940Z,78.24
2019-02-21T13:39:48.285Z,79.03
2019-02-21T13:42:18.105Z,79.03
2019-02-21T13:44:47.906Z,79.19
2019-02-21T13:47:17.576Z,79.26
2019-02-21T13:49:46.940Z,78.76
2019-02-21T13:52:16.591Z,78.60
2019-02-21T13:54:46.994Z,78.82
2019-02-21T13:57:17.617Z,78.83
2019-02-21T13:59:48.817Z,78.81
2019-02-21T14:02:18.162Z,78.43
2019-02-21T14:04:47.647Z,78.27
2019-02-21T14:07:17.139Z,78.18
2019-02-21T14:09:46.877Z,78.46
2019-02-21T14:12:17.047Z,79.49
2019-02-21T14:14:46.759Z,80.60
2019-02-21T14:17:17.177Z,81.46
2019-02-21T14:19:47.171Z,82.22
2019-02-21T14:22:16.806Z,82.67
2019-02-21T14:24:46.213Z,83.30
2019-02-21T14:27:17.276Z,83.86
2019-02-21T14:29:46.664Z,84.78
2019-02-21T14:32:16.899Z,85.36
2019-02-21T14:34:46.515Z,85.68
2019-02-21T14:37:17.226Z,86.02
2019-02-21T14:39:46.780Z,86.40
2019-02-21T14:42:16.143Z,86.91
2019-02-21T14:44:46.053Z,86.98
2019-02-21T14:47:17.630Z,86.86
2019-02-21T14:49:46.994Z,86.67
2019-02-21T14:52:17.227Z,86.72
2019-02-21T14:54:46.628Z,87.59
2019-02-21T14:57:17.434Z,88.88
2019-02-21T14:59:46.787Z,90.25
2019-02-21T15:02:17.163Z,91.35
2019-02-21T15:04:46.812Z,92.25
2019-02-21T15:07:17.290Z,93.32
2019-02-21T15:09:47.904Z,94.44
2019-02-21T15:12:17.353Z,94.44
2019-02-21T15:14:46.788Z,95.30
2019-02-21T15:17:18.555Z,95.75
2019-02-21T15:19:48.107Z,96.22
2019-02-21T15:22:17.485Z,96.77
2019-02-21T15:24:47.821Z,96.92
2019-02-21T15:27:18.031Z,96.88
2019-02-21T15:29:47.392Z,96.98
2019-02-21T15:32:17.189Z,97.18
2019-02-21T15:34:47.346Z,97.44
2019-02-21T15:37:18.094Z,97.51
2019-02-21T15:39:47.496Z,97.59
2019-02-21T15:42:17.294Z,97.31
2019-02-21T15:44:46.928Z,97.29
2019-02-21T15:47:17.241Z,97.16
2019-02-21T15:49:46.895Z,96.30
2019-02-21T15:52:22.271Z,96.30
2019-02-21T15:54:48.324Z,96.47
2019-02-21T15:57:18.235Z,96.28
2019-02-21T15:59:47.594Z,96.07
2019-02-21T16:02:18.682Z,95.99
2019-02-21T16:04:48.042Z,96.18
2019-02-21T16:07:17.547Z,96.28
2019-02-21T16:09:46.911Z,96.19
2019-02-21T16:12:17.838Z,96.01
2019-02-21T16:14:47.894Z,95.80
2019-02-21T16:17:17.352Z,95.58
2019-02-21T16:19:46.977Z,95.12
2019-02-21T16:22:17.311Z,95.12
2019-02-21T16:24:48.127Z,95.07
2019-02-21T16:27:19.010Z,95.02
2019-02-21T16:29:48.398Z,94.97
2019-02-21T16:32:18.043Z,94.71
2019-02-21T16:34:47.664Z,94.57
2019-02-21T16:37:17.500Z,94.35
2019-02-21T16:39:47.413Z,94.06
2019-02-21T16:42:17.278Z,93.88
2019-02-21T16:44:46.897Z,93.88
2019-02-21T16:47:16.312Z,93.43
2019-02-21T16:49:46.976Z,93.03
2019-02-21T16:52:18.079Z,92.55
2019-02-21T16:54:47.441Z,92.42
2019-02-21T16:57:17.889Z,91.96
2019-02-21T16:59:47.297Z,91.18
2019-02-21T17:02:17.479Z,90.86
2019-02-21T17:04:47.121Z,90.88
2019-02-21T17:07:20.124Z,91.10
2019-02-21T17:09:49.068Z,91.29
2019-02-21T17:12:18.419Z,91.65
2019-02-21T17:14:48.601Z,91.97
2019-02-21T17:17:18.256Z,92.53
2019-02-21T17:19:47.872Z,92.84
2019-02-21T17:22:17.803Z,93.32
2019-02-21T17:24:47.188Z,93.73
2019-02-21T17:27:17.533Z,94.42
2019-02-21T17:29:47.213Z,95.25
2019-02-21T17:32:17.530Z,96.40
2019-02-21T17:34:47.238Z,96.84
2019-02-21T17:37:25.011Z,97.34
2019-02-21T17:39:50.759Z,97.76
2019-02-21T17:42:20.702Z,98.56
2019-02-21T17:44:51.181Z,99.18
2019-02-21T17:47:20.829Z,99.72
2019-02-21T17:49:50.336Z,99.98
2019-02-21T17:52:19.685Z,100.00
2019-02-21T17:54:49.209Z,100.00
2019-02-21T17:57:18.570Z,100.00
2019-02-21T17:59:48.615Z,100.00
2019-02-21T18:02:18.286Z,100.00
2019-02-21T18:04:47.932Z,100.00
2019-02-21T18:07:17.733Z,100.00
2019-02-21T18:09:47.217Z,100.00
2019-02-21T18:12:17.584Z,100.00
2019-02-21T18:14:47.307Z,100.00
2019-02-21T18:17:17.742Z,100.00
2019-02-21T18:19:47.385Z,100.00
2019-02-21T18:22:18.619Z,100.00
2019-02-21T18:24:48.313Z,100.00
2019-02-21T18:27:17.683Z,100.00
2019-02-21T18:29:47.245Z,100.00
2019-02-21T18:32:17.693Z,100.00
2019-02-21T18:34:49.472Z,100.00
2019-02-21T18:37:18.706Z,100.00
2019-02-21T18:39:51.505Z,100.00
2019-02-21T18:42:22.469Z,100.00
2019-02-21T18:44:52.099Z,100.00
2019-02-21T18:47:21.597Z,100.00
2019-02-21T18:49:51.204Z,100.00
2019-02-21T18:52:20.700Z,100.00
2019-02-21T18:54:50.376Z,100.00
2019-02-21T18:57:19.778Z,100.00
2019-02-21T18:59:49.367Z,100.00
2019-02-21T19:02:19.858Z,100.00
2019-02-21T19:04:49.496Z,100.00
2019-02-21T19:07:18.895Z,100.00
2019-02-21T19:09:48.386Z,100.00
2019-02-21T19:12:17.826Z,100.00
2019-02-21T19:14:47.701Z,100.00
2019-02-21T19:17:17.918Z,100.00
2019-02-21T19:19:47.686Z,100.00
2019-02-21T19:22:17.988Z,100.00
2019-02-21T19:24:47.876Z,100.00
2019-02-21T19:27:18.196Z,100.00
2019-02-21T19:29:47.566Z,100.00
2019-02-21T19:32:17.935Z,100.00
2019-02-21T19:34:47.658Z,100.00
2019-02-21T19:37:18.193Z,100.00
2019-02-21T19:39:47.800Z,100.00
2019-02-21T19:42:18.163Z,100.00
2019-02-21T19:44:47.550Z,100.00
2019-02-21T19:47:18.028Z,100.00
2019-02-21T19:49:47.681Z,100.00
2019-02-21T19:52:17.994Z,100.00
2019-02-21T19:54:47.785Z,100.00
2019-02-21T19:57:17.965Z,100.00
2019-02-21T19:59:47.558Z,100.00
2019-02-21T20:02:17.948Z,100.00
2019-02-21T20:04:47.608Z,100.00
2019-02-21T20:07:17.003Z,100.00
2019-02-21T20:09:46.688Z,100.00
2019-02-21T20:12:16.081Z,100.00
2019-02-21T20:14:45.548Z,100.00
2019-02-21T20:17:14.962Z,100.00
2019-02-21T20:19:44.330Z,100.00
2019-02-21T20:22:13.878Z,100.00
2019-02-21T20:24:43.526Z,100.00
2019-02-21T20:27:12.883Z,100.00
2019-02-21T20:29:42.487Z,100.00
2019-02-21T20:32:11.982Z,100.00
2019-02-21T20:34:41.346Z,100.00
2019-02-21T20:37:12.234Z,100.00
2019-02-21T20:39:41.843Z,100.00
2019-02-21T20:42:11.219Z,100.00
2019-02-21T20:44:40.781Z,100.00
2019-02-21T20:47:10.238Z,100.00
2019-02-21T20:49:39.945Z,100.00
2019-02-21T20:52:09.307Z,100.00
2019-02-21T20:54:40.139Z,100.00
2019-02-21T20:57:10.358Z,100.00
2019-02-21T20:59:39.795Z,100.00
2019-02-21T21:02:09.219Z,100.00
2019-02-21T21:04:38.881Z,100.00
2019-02-21T21:07:08.298Z,100.00
2019-02-21T21:09:37.883Z,100.00
2019-02-21T21:12:07.258Z,100.00
2019-02-21T21:14:36.815Z,100.00
2019-02-21T21:17:06.225Z,100.00
2019-02-21T21:19:36.584Z,100.00
2019-02-21T21:22:06.109Z,100.00
2019-02-21T21:24:36.013Z,100.00
2019-02-21T21:27:05.627Z,100.00
2019-02-21T21:29:34.974Z,100.00
2019-02-21T21:32:04.403Z,100.00
2019-02-21T21:34:34.074Z,100.00
2019-02-21T21:37:03.458Z,100.00
2019-02-21T21:39:33.096Z,100.00
2019-02-21T21:42:02.723Z,100.00
2019-02-21T21:44:32.491Z,100.00
2019-02-21T21:47:02.013Z,100.00
2019-02-21T21:49:31.609Z,100.00
2019-02-21T21:52:01.015Z,100.00
2019-02-21T21:54:30.912Z,100.00
2019-02-21T21:57:00.294Z,100.00
2019-02-21T21:59:29.649Z,100.00
2019-02-21T22:01:59.015Z,100.00
2019-02-21T22:04:28.384Z,100.00
2019-02-21T22:06:57.978Z,100.00
2019-02-21T22:09:27.902Z,100.00
2019-02-21T22:11:57.281Z,100.00
2019-02-21T22:14:26.947Z,100.00
2019-02-21T22:16:56.332Z,100.00
2019-02-21T22:19:26.502Z,100.00
2019-02-21T22:21:56.262Z,100.00
2019-02-21T22:24:26.364Z,100.00
2019-02-21T22:26:56.062Z,100.00
2019-02-21T22:29:25.477Z,100.00
2019-02-21T22:31:55.119Z,100.00
2019-02-21T22:34:24.709Z,100.00
2019-02-21T22:36:54.265Z,100.00
2019-02-21T22:39:24.213Z,100.00
2019-02-21T22:41:53.574Z,100.00
2019-02-21T22:44:23.424Z,100.00
2019-02-21T22:46:53.355Z,100.00
2019-02-21T22:49:23.007Z,100.00
2019-02-21T22:51:52.639Z,100.00
2019-02-21T22:54:22.317Z,100.00
2019-02-21T22:56:51.697Z,100.00
2019-02-21T22:59:21.349Z,100.00
2019-02-21T23:01:50.800Z,100.00
2019-02-21T23:04:23.705Z,100.00
2019-02-21T23:06:56.588Z,100.00
2019-02-21T23:09:28.214Z,100.00
2019-02-21T23:11:57.980Z,100.00
2019-02-21T23:14:28.816Z,100.00
2019-02-21T23:16:58.253Z,100.00
2019-02-21T23:19:27.696Z,100.00
2019-02-21T23:21:57.268Z,100.00
2019-02-21T23:24:26.887Z,100.00
2019-02-21T23:26:56.260Z,100.00
2019-02-21T23:29:25.870Z,100.00
2019-02-21T23:31:55.499Z,100.00
2019-02-21T23:34:29.463Z,100.00
2019-02-21T23:36:59.124Z,100.00
2019-02-21T23:39:38.030Z,100.00
2019-02-21T23:41:59.594Z,100.00
2019-02-21T23:44:30.461Z,100.00
2019-02-21T23:47:00.117Z,100.00
2019-02-21T23:49:29.466Z,100.00
2019-02-21T23:51:59.152Z,100.00
2019-02-21T23:54:28.488Z,100.00
2019-02-21T23:56:57.866Z,100.00
2019-02-21T23:59:27.534Z,100.00
